Decoded Metar for LFPO (PARIS ORLY in FRANCE) (IATA:ORY) | Meteo·Mobile Aviation Weather
aviador You're here:

LFPO Decoded Metar

PARIS ORLY in FRANCE
Report Time2019-11-16 02:30:00
UTC Time2019-11-16 02:42:47
Flight Rules ifr IFR
Wind150° at 06 kt
W.Decomp.*RWY 20: 3.9 kt HW 4.5 kt LCW
RWY 08: 2.0 kt HW 5.7 kt RCW
RWY 24: 0.1 kt HW 6 kt LCW
Visibility9999 m
Phenomena:N/A
Clouds:Broken 006 Hf
Broken 013 Hf
Ceiling600 ft
Temp04°C (ISA -10)
Dew Point04°C (100% RH)
AAT0.5°C
QNH1002 hPa
Density Alt-453 ft
Elevation315 ft
Report Wrong Elevation
Raw Report
LFPO 160230Z 15006KT 9999 BKN006 BKN013 04/04 Q1002 NOSIG=

Extra information for LFPO:More info

Metar Taf Metar & Taf Last 4 Metars F.Rules Stats Wind Profile Meteogram Temp Stats Airport Information Weather charts Add Link Nearby VenuesMetar ALERT Operation Metar Decoded Social comments